sensor_id;sensor_type;location;lat;lon;timestamp;P1;durP1;ratioP1;P2;durP2;ratioP2
37805;SDS011;25082;50.870;0.022;2023-08-06T00:00:05;3.55;;;2.22;;
37805;SDS011;25082;50.870;0.022;2023-08-06T00:02:32;3.35;;;1.83;;
37805;SDS011;25082;50.870;0.022;2023-08-06T00:04:57;3.90;;;2.25;;
37805;SDS011;25082;50.870;0.022;2023-08-06T00:07:23;3.35;;;2.10;;
37805;SDS011;25082;50.870;0.022;2023-08-06T00:09:49;4.43;;;2.58;;
37805;SDS011;25082;50.870;0.022;2023-08-06T00:12:14;3.40;;;2.40;;
37805;SDS011;25082;50.870;0.022;2023-08-06T00:14:40;3.72;;;2.15;;
37805;SDS011;25082;50.870;0.022;2023-08-06T00:17:06;4.22;;;2.08;;
37805;SDS011;25082;50.870;0.022;2023-08-06T00:19:32;2.75;;;2.40;;
37805;SDS011;25082;50.870;0.022;2023-08-06T00:21:57;3.90;;;2.40;;
37805;SDS011;25082;50.870;0.022;2023-08-06T00:24:23;2.75;;;2.13;;
37805;SDS011;25082;50.870;0.022;2023-08-06T00:26:49;2.67;;;2.10;;
37805;SDS011;25082;50.870;0.022;2023-08-06T00:29:15;3.35;;;2.70;;
37805;SDS011;25082;50.870;0.022;2023-08-06T00:31:40;2.60;;;2.10;;
37805;SDS011;25082;50.870;0.022;2023-08-06T00:34:06;2.38;;;1.83;;
37805;SDS011;25082;50.870;0.022;2023-08-06T00:36:32;3.38;;;2.15;;
37805;SDS011;25082;50.870;0.022;2023-08-06T00:38:57;2.80;;;2.00;;
37805;SDS011;25082;50.870;0.022;2023-08-06T00:41:23;4.88;;;2.33;;
37805;SDS011;25082;50.870;0.022;2023-08-06T00:43:49;3.05;;;2.00;;
37805;SDS011;25082;50.870;0.022;2023-08-06T00:46:15;2.78;;;2.22;;
37805;SDS011;25082;50.870;0.022;2023-08-06T00:48:41;3.00;;;2.08;;
37805;SDS011;25082;50.870;0.022;2023-08-06T00:51:08;3.28;;;2.47;;
37805;SDS011;25082;50.870;0.022;2023-08-06T00:53:35;4.93;;;2.50;;
37805;SDS011;25082;50.870;0.022;2023-08-06T00:56:02;2.90;;;1.90;;
37805;SDS011;25082;50.870;0.022;2023-08-06T00:58:28;2.95;;;2.05;;
37805;SDS011;25082;50.870;0.022;2023-08-06T01:00:55;3.17;;;2.38;;
37805;SDS011;25082;50.870;0.022;2023-08-06T01:03:20;2.63;;;2.13;;
37805;SDS011;25082;50.870;0.022;2023-08-06T01:05:46;2.33;;;1.80;;
37805;SDS011;25082;50.870;0.022;2023-08-06T01:13:54;2.70;;;1.88;;
37805;SDS011;25082;50.870;0.022;2023-08-06T01:16:46;3.08;;;2.13;;
37805;SDS011;25082;50.870;0.022;2023-08-06T01:19:21;2.13;;;1.88;;
37805;SDS011;25082;50.870;0.022;2023-08-06T01:21:46;3.72;;;2.17;;
37805;SDS011;25082;50.870;0.022;2023-08-06T01:24:12;3.42;;;2.10;;
37805;SDS011;25082;50.870;0.022;2023-08-06T01:29:35;3.08;;;2.05;;
37805;SDS011;25082;50.870;0.022;2023-08-06T01:32:06;1.90;;;1.38;;
37805;SDS011;25082;50.870;0.022;2023-08-06T01:34:35;2.90;;;2.17;;
37805;SDS011;25082;50.870;0.022;2023-08-06T01:37:04;2.53;;;1.90;;
37805;SDS011;25082;50.870;0.022;2023-08-06T01:39:32;3.60;;;1.88;;
37805;SDS011;25082;50.870;0.022;2023-08-06T01:41:58;2.83;;;1.88;;
37805;SDS011;25082;50.870;0.022;2023-08-06T01:44:24;2.35;;;1.80;;
37805;SDS011;25082;50.870;0.022;2023-08-06T01:46:50;3.40;;;1.80;;
37805;SDS011;25082;50.870;0.022;2023-08-06T01:49:15;4.28;;;2.00;;
37805;SDS011;25082;50.870;0.022;2023-08-06T01:51:41;2.25;;;1.85;;
37805;SDS011;25082;50.870;0.022;2023-08-06T01:54:07;2.83;;;1.98;;
37805;SDS011;25082;50.870;0.022;2023-08-06T01:56:32;3.08;;;1.88;;
37805;SDS011;25082;50.870;0.022;2023-08-06T01:58:58;2.33;;;1.75;;
37805;SDS011;25082;50.870;0.022;2023-08-06T02:01:24;3.55;;;2.10;;
37805;SDS011;25082;50.870;0.022;2023-08-06T02:03:50;2.75;;;1.92;;
37805;SDS011;25082;50.870;0.022;2023-08-06T02:06:15;2.60;;;1.45;;
37805;SDS011;25082;50.870;0.022;2023-08-06T02:08:41;3.80;;;1.98;;
37805;SDS011;25082;50.870;0.022;2023-08-06T02:11:07;2.35;;;1.70;;
37805;SDS011;25082;50.870;0.022;2023-08-06T02:13:32;2.85;;;1.70;;
37805;SDS011;25082;50.870;0.022;2023-08-06T02:15:58;2.75;;;1.50;;
37805;SDS011;25082;50.870;0.022;2023-08-06T02:18:24;2.38;;;1.70;;
37805;SDS011;25082;50.870;0.022;2023-08-06T02:20:56;3.40;;;1.90;;
37805;SDS011;25082;50.870;0.022;2023-08-06T02:23:23;2.15;;;1.55;;
37805;SDS011;25082;50.870;0.022;2023-08-06T02:25:53;4.10;;;1.25;;
37805;SDS011;25082;50.870;0.022;2023-08-06T02:28:23;3.75;;;1.30;;
37805;SDS011;25082;50.870;0.022;2023-08-06T02:30:51;2.33;;;1.65;;
37805;SDS011;25082;50.870;0.022;2023-08-06T02:33:17;2.65;;;1.85;;
37805;SDS011;25082;50.870;0.022;2023-08-06T02:35:43;2.70;;;1.65;;
37805;SDS011;25082;50.870;0.022;2023-08-06T02:38:09;2.17;;;1.40;;
37805;SDS011;25082;50.870;0.022;2023-08-06T02:40:34;2.00;;;1.42;;
37805;SDS011;25082;50.870;0.022;2023-08-06T02:43:00;1.88;;;1.67;;
37805;SDS011;25082;50.870;0.022;2023-08-06T02:45:26;2.30;;;1.45;;
37805;SDS011;25082;50.870;0.022;2023-08-06T02:47:51;3.33;;;1.80;;
37805;SDS011;25082;50.870;0.022;2023-08-06T02:50:17;1.60;;;1.50;;
37805;SDS011;25082;50.870;0.022;2023-08-06T02:52:43;3.65;;;1.60;;
37805;SDS011;25082;50.870;0.022;2023-08-06T02:55:09;2.40;;;1.67;;
37805;SDS011;25082;50.870;0.022;2023-08-06T02:57:34;2.42;;;1.45;;
37805;SDS011;25082;50.870;0.022;2023-08-06T03:00:00;2.08;;;1.77;;
37805;SDS011;25082;50.870;0.022;2023-08-06T03:02:26;2.13;;;1.33;;
37805;SDS011;25082;50.870;0.022;2023-08-06T03:04:51;1.98;;;1.55;;
37805;SDS011;25082;50.870;0.022;2023-08-06T03:07:17;3.50;;;1.52;;
37805;SDS011;25082;50.870;0.022;2023-08-06T03:09:43;2.25;;;1.50;;
37805;SDS011;25082;50.870;0.022;2023-08-06T03:12:09;2.22;;;1.50;;
37805;SDS011;25082;50.870;0.022;2023-08-06T03:14:34;1.85;;;1.40;;
37805;SDS011;25082;50.870;0.022;2023-08-06T03:17:00;2.55;;;1.70;;
37805;SDS011;25082;50.870;0.022;2023-08-06T03:19:26;2.13;;;1.67;;
37805;SDS011;25082;50.870;0.022;2023-08-06T03:21:51;2.42;;;1.60;;
37805;SDS011;25082;50.870;0.022;2023-08-06T03:24:17;2.92;;;1.70;;
37805;SDS011;25082;50.870;0.022;2023-08-06T03:26:43;2.60;;;1.63;;
37805;SDS011;25082;50.870;0.022;2023-08-06T03:29:08;2.85;;;1.50;;
37805;SDS011;25082;50.870;0.022;2023-08-06T03:31:34;4.75;;;2.17;;
37805;SDS011;25082;50.870;0.022;2023-08-06T03:34:00;2.58;;;1.73;;
37805;SDS011;25082;50.870;0.022;2023-08-06T03:36:25;3.03;;;1.80;;
37805;SDS011;25082;50.870;0.022;2023-08-06T03:38:51;2.50;;;1.70;;
37805;SDS011;25082;50.870;0.022;2023-08-06T03:41:17;2.53;;;1.67;;
37805;SDS011;25082;50.870;0.022;2023-08-06T03:43:43;2.05;;;1.58;;
37805;SDS011;25082;50.870;0.022;2023-08-06T03:46:08;2.13;;;1.70;;
37805;SDS011;25082;50.870;0.022;2023-08-06T03:48:34;2.08;;;1.70;;
37805;SDS011;25082;50.870;0.022;2023-08-06T03:51:00;2.45;;;1.95;;
37805;SDS011;25082;50.870;0.022;2023-08-06T03:53:27;1.95;;;1.60;;
37805;SDS011;25082;50.870;0.022;2023-08-06T03:55:52;1.95;;;1.60;;
37805;SDS011;25082;50.870;0.022;2023-08-06T03:58:20;2.92;;;1.50;;
37805;SDS011;25082;50.870;0.022;2023-08-06T04:00:46;2.75;;;1.88;;
37805;SDS011;25082;50.870;0.022;2023-08-06T04:03:12;2.78;;;1.80;;
37805;SDS011;25082;50.870;0.022;2023-08-06T04:05:37;2.47;;;1.75;;
37805;SDS011;25082;50.870;0.022;2023-08-06T04:08:03;2.13;;;1.55;;
37805;SDS011;25082;50.870;0.022;2023-08-06T04:10:29;2.45;;;1.77;;
37805;SDS011;25082;50.870;0.022;2023-08-06T04:12:55;2.35;;;1.70;;
37805;SDS011;25082;50.870;0.022;2023-08-06T04:15:21;2.33;;;1.65;;
37805;SDS011;25082;50.870;0.022;2023-08-06T04:17:46;2.60;;;1.50;;
37805;SDS011;25082;50.870;0.022;2023-08-06T04:20:12;3.20;;;1.92;;
37805;SDS011;25082;50.870;0.022;2023-08-06T04:22:38;3.58;;;1.60;;
37805;SDS011;25082;50.870;0.022;2023-08-06T04:25:03;2.78;;;1.60;;
37805;SDS011;25082;50.870;0.022;2023-08-06T04:27:29;2.38;;;1.70;;
37805;SDS011;25082;50.870;0.022;2023-08-06T04:29:55;2.33;;;1.80;;
37805;SDS011;25082;50.870;0.022;2023-08-06T04:32:21;2.67;;;1.85;;
37805;SDS011;25082;50.870;0.022;2023-08-06T04:34:47;4.43;;;1.60;;
37805;SDS011;25082;50.870;0.022;2023-08-06T04:37:13;5.03;;;1.77;;
37805;SDS011;25082;50.870;0.022;2023-08-06T04:39:38;2.85;;;1.80;;
37805;SDS011;25082;50.870;0.022;2023-08-06T04:42:04;2.03;;;1.70;;
37805;SDS011;25082;50.870;0.022;2023-08-06T04:44:30;2.88;;;1.70;;
37805;SDS011;25082;50.870;0.022;2023-08-06T04:46:56;3.25;;;1.70;;
37805;SDS011;25082;50.870;0.022;2023-08-06T04:49:22;3.17;;;2.03;;
37805;SDS011;25082;50.870;0.022;2023-08-06T04:51:48;3.45;;;1.70;;
37805;SDS011;25082;50.870;0.022;2023-08-06T04:54:14;2.58;;;1.70;;
37805;SDS011;25082;50.870;0.022;2023-08-06T04:56:39;3.67;;;1.75;;
37805;SDS011;25082;50.870;0.022;2023-08-06T04:59:05;2.30;;;1.67;;
37805;SDS011;25082;50.870;0.022;2023-08-06T05:01:31;2.05;;;1.70;;
37805;SDS011;25082;50.870;0.022;2023-08-06T05:03:57;2.90;;;1.80;;
37805;SDS011;25082;50.870;0.022;2023-08-06T05:06:22;1.77;;;1.30;;
37805;SDS011;25082;50.870;0.022;2023-08-06T05:08:48;2.72;;;1.92;;
37805;SDS011;25082;50.870;0.022;2023-08-06T05:11:14;2.90;;;1.70;;
37805;SDS011;25082;50.870;0.022;2023-08-06T05:13:40;4.30;;;2.13;;
37805;SDS011;25082;50.870;0.022;2023-08-06T05:16:05;2.90;;;2.00;;
37805;SDS011;25082;50.870;0.022;2023-08-06T05:18:31;2.53;;;1.65;;
37805;SDS011;25082;50.870;0.022;2023-08-06T05:20:59;3.03;;;1.85;;
37805;SDS011;25082;50.870;0.022;2023-08-06T05:23:25;2.60;;;1.67;;
37805;SDS011;25082;50.870;0.022;2023-08-06T05:25:50;2.67;;;1.80;;
37805;SDS011;25082;50.870;0.022;2023-08-06T05:28:16;3.00;;;1.70;;
37805;SDS011;25082;50.870;0.022;2023-08-06T05:30:42;3.28;;;1.90;;
37805;SDS011;25082;50.870;0.022;2023-08-06T05:33:07;3.17;;;1.45;;
37805;SDS011;25082;50.870;0.022;2023-08-06T05:35:33;3.63;;;2.20;;
37805;SDS011;25082;50.870;0.022;2023-08-06T05:37:59;3.45;;;1.95;;
37805;SDS011;25082;50.870;0.022;2023-08-06T05:40:25;2.88;;;1.70;;
37805;SDS011;25082;50.870;0.022;2023-08-06T05:42:54;2.67;;;1.70;;
37805;SDS011;25082;50.870;0.022;2023-08-06T05:45:20;2.53;;;1.70;;
37805;SDS011;25082;50.870;0.022;2023-08-06T05:47:47;3.35;;;1.83;;
37805;SDS011;25082;50.870;0.022;2023-08-06T05:50:13;3.13;;;1.80;;
37805;SDS011;25082;50.870;0.022;2023-08-06T05:52:39;2.60;;;1.90;;
37805;SDS011;25082;50.870;0.022;2023-08-06T05:55:05;2.97;;;2.40;;
37805;SDS011;25082;50.870;0.022;2023-08-06T05:57:31;2.50;;;1.80;;
37805;SDS011;25082;50.870;0.022;2023-08-06T05:59:56;2.92;;;1.80;;
37805;SDS011;25082;50.870;0.022;2023-08-06T06:02:22;2.28;;;1.65;;
37805;SDS011;25082;50.870;0.022;2023-08-06T06:04:48;2.75;;;1.92;;
37805;SDS011;25082;50.870;0.022;2023-08-06T06:07:13;2.35;;;1.77;;
37805;SDS011;25082;50.870;0.022;2023-08-06T06:09:39;2.13;;;1.80;;
37805;SDS011;25082;50.870;0.022;2023-08-06T06:12:05;2.08;;;1.60;;
37805;SDS011;25082;50.870;0.022;2023-08-06T06:14:31;2.65;;;1.70;;
37805;SDS011;25082;50.870;0.022;2023-08-06T06:16:58;4.03;;;1.77;;
37805;SDS011;25082;50.870;0.022;2023-08-06T06:19:25;2.30;;;1.88;;
37805;SDS011;25082;50.870;0.022;2023-08-06T06:21:51;2.13;;;1.70;;
37805;SDS011;25082;50.870;0.022;2023-08-06T06:24:18;4.00;;;2.05;;
37805;SDS011;25082;50.870;0.022;2023-08-06T06:26:43;4.20;;;1.63;;
37805;SDS011;25082;50.870;0.022;2023-08-06T06:29:09;3.15;;;1.85;;
37805;SDS011;25082;50.870;0.022;2023-08-06T06:31:35;3.33;;;1.90;;
37805;SDS011;25082;50.870;0.022;2023-08-06T06:34:00;2.22;;;1.70;;
37805;SDS011;25082;50.870;0.022;2023-08-06T06:36:26;2.58;;;1.60;;
37805;SDS011;25082;50.870;0.022;2023-08-06T06:38:52;2.83;;;1.80;;
37805;SDS011;25082;50.870;0.022;2023-08-06T06:41:17;2.58;;;1.70;;
37805;SDS011;25082;50.870;0.022;2023-08-06T06:43:43;2.60;;;1.77;;
37805;SDS011;25082;50.870;0.022;2023-08-06T06:46:09;3.53;;;1.88;;
37805;SDS011;25082;50.870;0.022;2023-08-06T06:48:35;3.42;;;2.00;;
37805;SDS011;25082;50.870;0.022;2023-08-06T06:51:00;2.88;;;1.63;;
37805;SDS011;25082;50.870;0.022;2023-08-06T06:53:26;2.67;;;1.88;;
37805;SDS011;25082;50.870;0.022;2023-08-06T06:55:55;4.13;;;1.90;;
37805;SDS011;25082;50.870;0.022;2023-08-06T06:58:26;3.97;;;1.95;;
37805;SDS011;25082;50.870;0.022;2023-08-06T07:00:51;1.98;;;1.48;;
37805;SDS011;25082;50.870;0.022;2023-08-06T07:03:17;2.85;;;1.63;;
37805;SDS011;25082;50.870;0.022;2023-08-06T07:05:44;3.38;;;1.70;;
37805;SDS011;25082;50.870;0.022;2023-08-06T07:08:10;2.15;;;1.40;;
37805;SDS011;25082;50.870;0.022;2023-08-06T07:10:36;2.63;;;1.83;;
37805;SDS011;25082;50.870;0.022;2023-08-06T07:13:02;2.97;;;1.63;;
37805;SDS011;25082;50.870;0.022;2023-08-06T07:15:28;2.30;;;1.60;;
37805;SDS011;25082;50.870;0.022;2023-08-06T07:17:54;2.22;;;1.70;;
37805;SDS011;25082;50.870;0.022;2023-08-06T07:20:20;2.38;;;1.92;;
37805;SDS011;25082;50.870;0.022;2023-08-06T07:22:45;3.42;;;2.13;;
37805;SDS011;25082;50.870;0.022;2023-08-06T07:25:11;2.88;;;2.00;;
37805;SDS011;25082;50.870;0.022;2023-08-06T07:27:38;4.05;;;1.92;;
37805;SDS011;25082;50.870;0.022;2023-08-06T07:30:04;3.13;;;1.75;;
37805;SDS011;25082;50.870;0.022;2023-08-06T07:32:30;1.92;;;1.60;;
37805;SDS011;25082;50.870;0.022;2023-08-06T07:34:56;2.38;;;1.77;;
37805;SDS011;25082;50.870;0.022;2023-08-06T07:37:25;2.53;;;1.55;;
37805;SDS011;25082;50.870;0.022;2023-08-06T07:39:54;3.67;;;1.95;;
37805;SDS011;25082;50.870;0.022;2023-08-06T07:42:20;2.70;;;1.40;;
37805;SDS011;25082;50.870;0.022;2023-08-06T07:44:53;3.22;;;2.10;;
37805;SDS011;25082;50.870;0.022;2023-08-06T07:47:20;3.35;;;1.83;;
37805;SDS011;25082;50.870;0.022;2023-08-06T07:49:46;3.05;;;1.67;;
37805;SDS011;25082;50.870;0.022;2023-08-06T07:52:12;3.03;;;2.05;;
37805;SDS011;25082;50.870;0.022;2023-08-06T07:54:38;2.95;;;2.22;;
37805;SDS011;25082;50.870;0.022;2023-08-06T07:57:04;2.20;;;1.58;;
37805;SDS011;25082;50.870;0.022;2023-08-06T07:59:30;4.00;;;1.80;;
37805;SDS011;25082;50.870;0.022;2023-08-06T08:01:56;4.40;;;1.83;;
37805;SDS011;25082;50.870;0.022;2023-08-06T08:04:21;3.40;;;1.80;;
37805;SDS011;25082;50.870;0.022;2023-08-06T08:06:47;4.63;;;2.20;;
37805;SDS011;25082;50.870;0.022;2023-08-06T08:09:13;6.63;;;2.42;;
37805;SDS011;25082;50.870;0.022;2023-08-06T08:11:39;4.13;;;2.30;;
37805;SDS011;25082;50.870;0.022;2023-08-06T08:14:06;8.82;;;2.20;;
37805;SDS011;25082;50.870;0.022;2023-08-06T08:16:31;6.38;;;2.42;;
37805;SDS011;25082;50.870;0.022;2023-08-06T08:18:57;7.53;;;2.60;;
37805;SDS011;25082;50.870;0.022;2023-08-06T08:21:23;3.45;;;2.08;;
37805;SDS011;25082;50.870;0.022;2023-08-06T08:23:50;5.57;;;2.38;;
37805;SDS011;25082;50.870;0.022;2023-08-06T08:26:16;6.82;;;2.25;;
37805;SDS011;25082;50.870;0.022;2023-08-06T08:28:42;5.25;;;2.05;;
37805;SDS011;25082;50.870;0.022;2023-08-06T08:31:08;5.47;;;2.53;;
37805;SDS011;25082;50.870;0.022;2023-08-06T08:33:34;6.85;;;2.35;;
37805;SDS011;25082;50.870;0.022;2023-08-06T08:36:00;5.40;;;2.45;;
37805;SDS011;25082;50.870;0.022;2023-08-06T08:38:26;6.78;;;2.88;;
37805;SDS011;25082;50.870;0.022;2023-08-06T08:40:52;9.10;;;2.45;;
37805;SDS011;25082;50.870;0.022;2023-08-06T08:43:22;6.40;;;2.83;;
37805;SDS011;25082;50.870;0.022;2023-08-06T08:45:51;9.18;;;2.60;;
37805;SDS011;25082;50.870;0.022;2023-08-06T08:48:20;6.38;;;2.97;;
37805;SDS011;25082;50.870;0.022;2023-08-06T08:50:48;4.72;;;2.25;;
37805;SDS011;25082;50.870;0.022;2023-08-06T08:53:15;4.70;;;2.13;;
37805;SDS011;25082;50.870;0.022;2023-08-06T08:55:42;5.07;;;2.17;;
37805;SDS011;25082;50.870;0.022;2023-08-06T08:58:09;9.57;;;2.65;;
37805;SDS011;25082;50.870;0.022;2023-08-06T09:00:35;12.82;;;3.35;;
37805;SDS011;25082;50.870;0.022;2023-08-06T09:03:01;9.70;;;3.22;;
37805;SDS011;25082;50.870;0.022;2023-08-06T09:05:30;5.57;;;2.45;;
37805;SDS011;25082;50.870;0.022;2023-08-06T09:08:02;6.85;;;2.72;;
37805;SDS011;25082;50.870;0.022;2023-08-06T09:10:29;7.63;;;2.80;;
37805;SDS011;25082;50.870;0.022;2023-08-06T09:12:55;5.00;;;2.30;;
37805;SDS011;25082;50.870;0.022;2023-08-06T09:15:25;5.13;;;2.40;;
37805;SDS011;25082;50.870;0.022;2023-08-06T09:17:52;7.68;;;2.20;;
37805;SDS011;25082;50.870;0.022;2023-08-06T09:20:18;6.75;;;2.33;;
37805;SDS011;25082;50.870;0.022;2023-08-06T09:22:44;5.95;;;2.33;;
37805;SDS011;25082;50.870;0.022;2023-08-06T09:25:13;4.53;;;2.30;;
37805;SDS011;25082;50.870;0.022;2023-08-06T09:27:49;4.95;;;2.30;;
37805;SDS011;25082;50.870;0.022;2023-08-06T09:30:28;5.40;;;2.50;;
37805;SDS011;25082;50.870;0.022;2023-08-06T09:32:58;6.07;;;2.00;;
37805;SDS011;25082;50.870;0.022;2023-08-06T09:35:27;5.95;;;2.58;;
37805;SDS011;25082;50.870;0.022;2023-08-06T09:37:55;3.83;;;2.40;;
37805;SDS011;25082;50.870;0.022;2023-08-06T09:40:24;4.13;;;1.90;;
37805;SDS011;25082;50.870;0.022;2023-08-06T09:42:51;5.10;;;2.38;;
37805;SDS011;25082;50.870;0.022;2023-08-06T09:45:18;4.45;;;2.15;;
37805;SDS011;25082;50.870;0.022;2023-08-06T09:47:44;3.97;;;2.28;;
37805;SDS011;25082;50.870;0.022;2023-08-06T09:50:19;4.82;;;2.58;;
37805;SDS011;25082;50.870;0.022;2023-08-06T09:52:46;3.63;;;1.83;;
37805;SDS011;25082;50.870;0.022;2023-08-06T09:55:13;4.90;;;2.35;;
37805;SDS011;25082;50.870;0.022;2023-08-06T09:57:42;5.07;;;2.22;;
37805;SDS011;25082;50.870;0.022;2023-08-06T10:00:08;6.22;;;2.13;;
37805;SDS011;25082;50.870;0.022;2023-08-06T10:02:39;6.40;;;2.25;;
37805;SDS011;25082;50.870;0.022;2023-08-06T10:05:06;5.57;;;2.40;;
37805;SDS011;25082;50.870;0.022;2023-08-06T10:07:33;3.03;;;2.15;;
37805;SDS011;25082;50.870;0.022;2023-08-06T10:09:59;3.25;;;2.00;;
37805;SDS011;25082;50.870;0.022;2023-08-06T10:12:26;5.40;;;2.40;;
37805;SDS011;25082;50.870;0.022;2023-08-06T10:14:59;5.10;;;2.60;;
37805;SDS011;25082;50.870;0.022;2023-08-06T10:17:29;3.08;;;2.42;;
37805;SDS011;25082;50.870;0.022;2023-08-06T10:19:58;3.25;;;2.33;;
37805;SDS011;25082;50.870;0.022;2023-08-06T10:22:25;2.78;;;1.90;;
37805;SDS011;25082;50.870;0.022;2023-08-06T10:24:58;3.25;;;2.05;;
37805;SDS011;25082;50.870;0.022;2023-08-06T10:32:49;4.35;;;1.98;;
37805;SDS011;25082;50.870;0.022;2023-08-06T10:35:29;3.03;;;1.65;;
37805;SDS011;25082;50.870;0.022;2023-08-06T10:38:12;3.17;;;1.83;;
37805;SDS011;25082;50.870;0.022;2023-08-06T10:40:40;4.95;;;2.30;;
37805;SDS011;25082;50.870;0.022;2023-08-06T10:43:31;3.60;;;2.05;;
37805;SDS011;25082;50.870;0.022;2023-08-06T10:46:03;2.97;;;1.88;;
37805;SDS011;25082;50.870;0.022;2023-08-06T10:48:40;3.55;;;2.17;;
37805;SDS011;25082;50.870;0.022;2023-08-06T10:51:07;2.50;;;1.83;;
37805;SDS011;25082;50.870;0.022;2023-08-06T10:53:38;3.53;;;2.10;;
37805;SDS011;25082;50.870;0.022;2023-08-06T10:56:17;3.90;;;1.75;;
37805;SDS011;25082;50.870;0.022;2023-08-06T10:58:45;5.72;;;1.90;;
37805;SDS011;25082;50.870;0.022;2023-08-06T11:01:12;4.07;;;2.10;;
37805;SDS011;25082;50.870;0.022;2023-08-06T11:03:38;3.95;;;1.77;;
37805;SDS011;25082;50.870;0.022;2023-08-06T11:06:06;2.63;;;1.65;;
37805;SDS011;25082;50.870;0.022;2023-08-06T11:08:36;2.45;;;1.88;;
37805;SDS011;25082;50.870;0.022;2023-08-06T11:11:09;4.68;;;1.88;;
37805;SDS011;25082;50.870;0.022;2023-08-06T11:13:41;3.28;;;2.05;;
37805;SDS011;25082;50.870;0.022;2023-08-06T11:16:09;4.88;;;1.80;;
37805;SDS011;25082;50.870;0.022;2023-08-06T11:18:35;3.92;;;2.28;;
37805;SDS011;25082;50.870;0.022;2023-08-06T11:21:01;4.13;;;2.08;;
37805;SDS011;25082;50.870;0.022;2023-08-06T11:23:28;3.50;;;1.90;;
37805;SDS011;25082;50.870;0.022;2023-08-06T11:25:54;4.18;;;1.92;;
37805;SDS011;25082;50.870;0.022;2023-08-06T11:28:20;9.13;;;2.45;;
37805;SDS011;25082;50.870;0.022;2023-08-06T11:30:49;3.35;;;2.05;;
37805;SDS011;25082;50.870;0.022;2023-08-06T11:33:22;5.53;;;2.58;;
37805;SDS011;25082;50.870;0.022;2023-08-06T11:35:50;4.72;;;1.73;;
37805;SDS011;25082;50.870;0.022;2023-08-06T11:38:16;4.05;;;1.80;;
37805;SDS011;25082;50.870;0.022;2023-08-06T11:40:50;5.07;;;1.85;;
37805;SDS011;25082;50.870;0.022;2023-08-06T11:43:17;3.08;;;1.77;;
37805;SDS011;25082;50.870;0.022;2023-08-06T11:45:44;4.97;;;2.30;;
37805;SDS011;25082;50.870;0.022;2023-08-06T11:48:10;4.68;;;1.77;;
37805;SDS011;25082;50.870;0.022;2023-08-06T11:50:36;3.42;;;2.00;;
37805;SDS011;25082;50.870;0.022;2023-08-06T11:53:06;2.90;;;1.60;;
37805;SDS011;25082;50.870;0.022;2023-08-06T11:55:32;3.15;;;1.38;;
37805;SDS011;25082;50.870;0.022;2023-08-06T11:57:59;2.72;;;1.48;;
37805;SDS011;25082;50.870;0.022;2023-08-06T12:00:29;3.78;;;2.08;;
37805;SDS011;25082;50.870;0.022;2023-08-06T12:02:55;4.38;;;1.98;;
37805;SDS011;25082;50.870;0.022;2023-08-06T12:05:22;3.95;;;1.83;;
37805;SDS011;25082;50.870;0.022;2023-08-06T12:07:55;3.58;;;2.10;;
37805;SDS011;25082;50.870;0.022;2023-08-06T12:10:25;3.30;;;1.40;;
37805;SDS011;25082;50.870;0.022;2023-08-06T12:12:52;3.03;;;1.40;;
37805;SDS011;25082;50.870;0.022;2023-08-06T12:15:18;5.80;;;1.60;;
37805;SDS011;25082;50.870;0.022;2023-08-06T12:17:44;2.75;;;1.50;;
37805;SDS011;25082;50.870;0.022;2023-08-06T12:20:10;2.30;;;1.30;;
37805;SDS011;25082;50.870;0.022;2023-08-06T12:22:36;3.35;;;1.60;;
37805;SDS011;25082;50.870;0.022;2023-08-06T12:25:05;1.92;;;1.35;;
37805;SDS011;25082;50.870;0.022;2023-08-06T12:30:07;5.28;;;1.58;;
37805;SDS011;25082;50.870;0.022;2023-08-06T12:32:33;4.65;;;1.48;;
37805;SDS011;25082;50.870;0.022;2023-08-06T12:35:00;2.72;;;1.75;;
37805;SDS011;25082;50.870;0.022;2023-08-06T12:37:28;4.68;;;2.03;;
37805;SDS011;25082;50.870;0.022;2023-08-06T12:39:54;5.63;;;1.77;;
37805;SDS011;25082;50.870;0.022;2023-08-06T12:42:20;11.27;;;2.17;;
37805;SDS011;25082;50.870;0.022;2023-08-06T12:44:45;6.72;;;1.77;;
37805;SDS011;25082;50.870;0.022;2023-08-06T12:47:13;4.85;;;1.90;;
37805;SDS011;25082;50.870;0.022;2023-08-06T12:49:39;4.28;;;1.70;;
37805;SDS011;25082;50.870;0.022;2023-08-06T12:52:05;2.78;;;1.30;;
37805;SDS011;25082;50.870;0.022;2023-08-06T12:54:32;2.72;;;1.63;;
37805;SDS011;25082;50.870;0.022;2023-08-06T12:57:04;3.65;;;1.60;;
37805;SDS011;25082;50.870;0.022;2023-08-06T12:59:30;7.15;;;1.92;;
37805;SDS011;25082;50.870;0.022;2023-08-06T13:01:56;5.07;;;1.67;;
37805;SDS011;25082;50.870;0.022;2023-08-06T13:04:22;6.35;;;1.52;;
37805;SDS011;25082;50.870;0.022;2023-08-06T13:06:48;3.33;;;1.40;;
37805;SDS011;25082;50.870;0.022;2023-08-06T13:09:14;3.72;;;1.38;;
37805;SDS011;25082;50.870;0.022;2023-08-06T13:11:40;3.78;;;1.75;;
37805;SDS011;25082;50.870;0.022;2023-08-06T13:14:10;5.05;;;1.83;;
37805;SDS011;25082;50.870;0.022;2023-08-06T13:16:37;3.40;;;1.55;;
37805;SDS011;25082;50.870;0.022;2023-08-06T13:19:06;2.67;;;1.33;;
37805;SDS011;25082;50.870;0.022;2023-08-06T13:24:07;3.20;;;1.55;;
37805;SDS011;25082;50.870;0.022;2023-08-06T13:26:33;3.13;;;1.20;;
37805;SDS011;25082;50.870;0.022;2023-08-06T13:28:59;2.17;;;1.35;;
37805;SDS011;25082;50.870;0.022;2023-08-06T13:31:26;2.45;;;1.27;;
37805;SDS011;25082;50.870;0.022;2023-08-06T13:33:53;3.90;;;1.60;;
37805;SDS011;25082;50.870;0.022;2023-08-06T13:36:20;7.28;;;1.85;;
37805;SDS011;25082;50.870;0.022;2023-08-06T13:38:47;4.80;;;1.67;;
37805;SDS011;25082;50.870;0.022;2023-08-06T13:41:13;3.60;;;1.35;;
37805;SDS011;25082;50.870;0.022;2023-08-06T13:43:39;3.38;;;1.55;;
37805;SDS011;25082;50.870;0.022;2023-08-06T13:46:05;1.98;;;1.27;;
37805;SDS011;25082;50.870;0.022;2023-08-06T13:48:31;3.95;;;1.45;;
37805;SDS011;25082;50.870;0.022;2023-08-06T13:50:57;2.30;;;1.35;;
37805;SDS011;25082;50.870;0.022;2023-08-06T13:53:23;2.95;;;1.50;;
37805;SDS011;25082;50.870;0.022;2023-08-06T13:55:50;4.47;;;1.27;;
37805;SDS011;25082;50.870;0.022;2023-08-06T13:58:16;3.08;;;1.42;;
37805;SDS011;25082;50.870;0.022;2023-08-06T14:00:41;2.65;;;1.20;;
37805;SDS011;25082;50.870;0.022;2023-08-06T14:03:07;1.73;;;1.20;;
37805;SDS011;25082;50.870;0.022;2023-08-06T14:05:34;2.42;;;1.48;;
37805;SDS011;25082;50.870;0.022;2023-08-06T14:07:59;2.13;;;1.42;;
37805;SDS011;25082;50.870;0.022;2023-08-06T14:10:25;4.15;;;1.45;;
37805;SDS011;25082;50.870;0.022;2023-08-06T14:12:51;2.97;;;1.35;;
37805;SDS011;25082;50.870;0.022;2023-08-06T14:15:16;3.30;;;1.45;;
37805;SDS011;25082;50.870;0.022;2023-08-06T14:17:42;2.67;;;1.10;;
37805;SDS011;25082;50.870;0.022;2023-08-06T14:20:08;2.22;;;1.35;;
37805;SDS011;25082;50.870;0.022;2023-08-06T14:22:36;2.80;;;1.10;;
37805;SDS011;25082;50.870;0.022;2023-08-06T14:25:02;4.15;;;1.48;;
37805;SDS011;25082;50.870;0.022;2023-08-06T14:27:29;2.65;;;1.35;;
37805;SDS011;25082;50.870;0.022;2023-08-06T14:29:54;3.42;;;1.65;;
37805;SDS011;25082;50.870;0.022;2023-08-06T14:32:20;2.38;;;1.40;;
37805;SDS011;25082;50.870;0.022;2023-08-06T14:34:46;3.20;;;1.58;;
37805;SDS011;25082;50.870;0.022;2023-08-06T14:37:12;2.03;;;1.50;;
37805;SDS011;25082;50.870;0.022;2023-08-06T14:39:38;1.27;;;1.00;;
37805;SDS011;25082;50.870;0.022;2023-08-06T14:42:04;2.83;;;1.30;;
37805;SDS011;25082;50.870;0.022;2023-08-06T14:44:30;2.65;;;1.30;;
37805;SDS011;25082;50.870;0.022;2023-08-06T14:46:56;2.95;;;1.55;;
37805;SDS011;25082;50.870;0.022;2023-08-06T14:49:22;2.70;;;1.50;;
37805;SDS011;25082;50.870;0.022;2023-08-06T14:51:48;1.52;;;1.23;;
37805;SDS011;25082;50.870;0.022;2023-08-06T14:54:14;2.50;;;1.30;;
37805;SDS011;25082;50.870;0.022;2023-08-06T14:56:40;1.52;;;1.08;;
37805;SDS011;25082;50.870;0.022;2023-08-06T14:59:06;2.72;;;1.10;;
37805;SDS011;25082;50.870;0.022;2023-08-06T15:01:31;2.22;;;1.23;;
37805;SDS011;25082;50.870;0.022;2023-08-06T15:03:58;3.92;;;1.80;;